Time;durP1;ratioP1;P1;durP2;ratioP2;P2;SDS_P1;SDS_P2;PMS_P1;PMS_P2;Temp;Humidity;BMP_temperature;BMP_pressure;BME280_temperature;BME280_humidity;BME280_pressure;Samples;Min_cycle;Max_cycle;Signal;HPM_P1;HPM_P2
2021/03/30 00:02:05;;;;;;;;;;;9.00;65.50;;;;;;4975241;28;19976;-76
2021/03/30 00:04:31;;;;;;;;;;;8.90;65.60;;;;;;4993003;28;19914;-75
2021/03/30 00:06:56;;;;;;;;;;;8.90;65.60;;;;;;4975260;28;19906;-75
2021/03/30 00:09:22;;;;;;;;;;;8.90;65.60;;;;;;4992697;28;21144;-75
2021/03/30 00:11:47;;;;;;;;;;;8.90;65.60;;;;;;4975213;28;19910;-75
2021/03/30 00:14:13;;;;;;;;;;;8.80;65.50;;;;;;4992958;28;20378;-75
2021/03/30 00:16:39;;;;;;;;;;;8.90;65.60;;;;;;4993205;28;19914;-73
2021/03/30 00:19:04;;;;;;;;;;;8.80;65.50;;;;;;4992489;28;19913;-73
2021/03/30 00:21:30;;;;;;;;;;;8.80;65.60;;;;;;4992534;28;19906;-74
2021/03/30 00:23:55;;;;;;;;;;;8.70;65.70;;;;;;4992540;28;19913;-74
2021/03/30 00:26:21;;;;;;;;;;;8.70;65.80;;;;;;4992382;28;19906;-76
2021/03/30 00:28:47;;;;;;;;;;;8.60;65.90;;;;;;4992458;28;19976;-77
2021/03/30 00:31:12;;;;;;;;;;;8.60;66.00;;;;;;4992331;28;20304;-75
2021/03/30 00:33:38;;;;;;;;;;;8.50;66.00;;;;;;4992396;28;19906;-75
2021/03/30 00:36:03;;;;;;;;;;;8.50;66.20;;;;;;4992421;28;20388;-76
2021/03/30 00:38:29;;;;;;;;;;;8.40;66.20;;;;;;4991955;28;20312;-75
2021/03/30 00:40:57;;;;;;;;;;;8.30;66.20;;;;;;4974799;28;19913;-74
2021/03/30 00:43:23;;;;;;;;;;;8.40;66.40;;;;;;4992241;28;19909;-74
2021/03/30 00:45:51;;;;;;;;;;;8.30;66.40;;;;;;4992246;28;20261;-76
2021/03/30 00:48:25;;;;;;;;;;;8.30;66.50;;;;;;4975278;28;19917;-75
2021/03/30 00:50:51;;;;;;;;;;;8.30;66.60;;;;;;4990376;28;19940;-77
2021/03/30 00:53:16;;;;;;;;;;;8.30;66.60;;;;;;5007764;28;19928;-75
2021/03/30 00:55:42;;;;;;;;;;;8.20;66.60;;;;;;5011810;28;19965;-76
2021/03/30 00:58:08;;;;;;;;;;;8.20;66.60;;;;;;5011554;28;20347;-76
2021/03/30 01:00:33;;;;;;;;;;;8.10;66.70;;;;;;5011508;28;19909;-76
2021/03/30 01:02:59;;;;;;;;;;;8.00;66.70;;;;;;5011493;28;20285;-76
2021/03/30 01:05:25;;;;;;;;;;;8.00;66.80;;;;;;5011751;28;19905;-76
2021/03/30 01:08:08;;;;;;;;;;;8.10;67.00;;;;;;5011488;28;19918;-76
2021/03/30 01:10:44;;;;;;;;;;;7.90;66.90;;;;;;5008746;28;19912;-76
2021/03/30 01:13:28;;;;;;;;;;;7.90;67.00;;;;;;5010428;28;20018;-76
2021/03/30 01:16:01;;;;;;;;;;;7.80;67.10;;;;;;5010233;28;19905;-76
2021/03/30 01:18:32;;;;;;;;;;;7.80;67.20;;;;;;5011739;28;19944;-76
2021/03/30 01:21:09;;;;;;;;;;;7.80;67.30;;;;;;5011299;28;19905;-75
2021/03/30 01:23:49;;;;;;;;;;;7.70;67.40;;;;;;5009512;28;19956;-76
2021/03/30 01:26:17;;;;;;;;;;;7.60;67.40;;;;;;5010738;28;19919;-76
2021/03/30 01:28:56;;;;;;;;;;;7.60;67.50;;;;;;5010940;28;20327;-76
2021/03/30 01:31:22;;;;;;;;;;;7.60;67.60;;;;;;4992811;28;20213;-76
2021/03/30 01:33:49;;;;;;;;;;;7.50;67.70;;;;;;4993517;28;20286;-75
2021/03/30 01:36:14;;;;;;;;;;;7.40;67.70;;;;;;4993491;28;19905;-76
2021/03/30 01:38:41;;;;;;;;;;;7.40;67.80;;;;;;4994367;28;20406;-76
2021/03/30 01:41:08;;;;;;;;;;;7.40;67.80;;;;;;5008983;28;20020;-76
2021/03/30 01:43:33;;;;;;;;;;;7.30;67.80;;;;;;5011097;28;19935;-75
2021/03/30 01:45:59;;;;;;;;;;;7.30;67.90;;;;;;5011080;28;19905;-76
2021/03/30 01:48:25;;;;;;;;;;;7.30;68.10;;;;;;4993714;28;20356;-76
2021/03/30 01:50:52;;;;;;;;;;;7.20;68.10;;;;;;5011019;28;19913;-76
2021/03/30 01:53:19;;;;;;;;;;;7.10;68.10;;;;;;4990897;28;20023;-76
2021/03/30 01:55:48;;;;;;;;;;;7.10;68.20;;;;;;4973794;28;19929;-76
2021/03/30 01:58:16;;;;;;;;;;;7.10;68.30;;;;;;4991372;28;19960;-76
2021/03/30 02:00:42;;;;;;;;;;;7.00;68.30;;;;;;4991491;28;19918;-76
2021/03/30 02:03:08;;;;;;;;;;;6.90;68.30;;;;;;4990487;28;19928;-76
2021/03/30 02:05:34;;;;;;;;;;;6.90;68.30;;;;;;5014494;28;19913;-76
2021/03/30 02:08:01;;;;;;;;;;;6.90;68.50;;;;;;5014102;28;19924;-76
2021/03/30 02:10:34;;;;;;;;;;;6.80;68.50;;;;;;5014653;28;20347;-76
2021/03/30 02:13:01;;;;;;;;;;;6.80;68.60;;;;;;5012750;28;19906;-76
2021/03/30 02:15:27;;;;;;;;;;;6.80;68.60;;;;;;5014184;28;19988;-76
2021/03/30 02:18:03;;;;;;;;;;;6.70;68.60;;;;;;5014187;28;19949;-76
2021/03/30 02:20:35;;;;;;;;;;;6.70;68.70;;;;;;4996051;28;20016;-76
2021/03/30 02:23:03;;;;;;;;;;;6.60;68.70;;;;;;5012874;28;19905;-76
2021/03/30 02:25:30;;;;;;;;;;;6.60;68.80;;;;;;5014189;28;19931;-76
2021/03/30 02:27:57;;;;;;;;;;;6.60;68.90;;;;;;5010246;28;20000;-76
2021/03/30 02:30:24;;;;;;;;;;;6.50;68.80;;;;;;4996505;28;19906;-76
2021/03/30 02:32:51;;;;;;;;;;;6.50;68.90;;;;;;4996701;28;20375;-76
2021/03/30 02:35:18;;;;;;;;;;;6.40;69.00;;;;;;5014034;28;19912;-76
2021/03/30 02:37:44;;;;;;;;;;;6.40;69.10;;;;;;5013873;28;19909;-76
2021/03/30 02:40:13;;;;;;;;;;;6.30;69.10;;;;;;5013566;28;19979;-76
2021/03/30 02:42:39;;;;;;;;;;;6.40;69.20;;;;;;4994716;28;19945;-76
2021/03/30 02:45:06;;;;;;;;;;;6.30;69.20;;;;;;5013704;28;19906;-76
2021/03/30 02:47:32;;;;;;;;;;;6.30;69.20;;;;;;5013805;28;20304;-76
2021/03/30 02:49:58;;;;;;;;;;;6.30;69.30;;;;;;5014455;28;19905;-76
2021/03/30 02:52:24;;;;;;;;;;;6.20;69.30;;;;;;5013904;28;19913;-76
2021/03/30 02:54:50;;;;;;;;;;;6.30;69.40;;;;;;5013698;28;20379;-76
2021/03/30 02:57:16;;;;;;;;;;;6.20;69.40;;;;;;5013874;28;19905;-76
2021/03/30 02:59:43;;;;;;;;;;;6.10;69.50;;;;;;5013628;28;19912;-76
2021/03/30 03:02:11;;;;;;;;;;;6.20;69.60;;;;;;5011455;28;19906;-76
2021/03/30 03:04:37;;;;;;;;;;;6.10;69.60;;;;;;5013347;28;19906;-76
2021/03/30 03:07:03;;;;;;;;;;;6.10;69.60;;;;;;5013395;28;19905;-76
2021/03/30 03:09:29;;;;;;;;;;;6.10;69.60;;;;;;4995849;28;20240;-76
2021/03/30 03:11:55;;;;;;;;;;;6.00;69.60;;;;;;5013500;28;20011;-76
2021/03/30 03:14:21;;;;;;;;;;;6.00;69.60;;;;;;4995403;28;19956;-76
2021/03/30 03:16:47;;;;;;;;;;;6.00;69.60;;;;;;4995806;28;20368;-76
2021/03/30 03:19:13;;;;;;;;;;;6.00;69.60;;;;;;5013276;28;19905;-76
2021/03/30 03:21:39;;;;;;;;;;;5.90;69.60;;;;;;5013152;28;19906;-76
2021/03/30 03:24:08;;;;;;;;;;;5.90;69.70;;;;;;5013242;28;20267;-76
2021/03/30 03:26:34;;;;;;;;;;;5.90;69.70;;;;;;5011766;28;19953;-76
2021/03/30 03:29:00;;;;;;;;;;;5.90;69.70;;;;;;5012751;28;19959;-76
2021/03/30 03:31:26;;;;;;;;;;;5.90;69.80;;;;;;5013477;28;19906;-76
2021/03/30 03:33:52;;;;;;;;;;;5.80;69.90;;;;;;5013107;28;19909;-75
2021/03/30 03:36:18;;;;;;;;;;;5.80;70.00;;;;;;5013158;28;20001;-75
2021/03/30 03:38:43;;;;;;;;;;;5.70;70.10;;;;;;4995553;28;20307;-75
2021/03/30 03:41:12;;;;;;;;;;;5.70;70.10;;;;;;5012825;28;19928;-75
2021/03/30 03:43:37;;;;;;;;;;;5.70;70.30;;;;;;5012959;28;20382;-76
2021/03/30 03:46:03;;;;;;;;;;;5.60;70.20;;;;;;5012802;28;19905;-75
2021/03/30 03:48:29;;;;;;;;;;;5.70;70.30;;;;;;5012766;28;19925;-75
2021/03/30 03:50:58;;;;;;;;;;;5.60;70.20;;;;;;4995039;28;20252;-75
2021/03/30 03:53:26;;;;;;;;;;;5.60;70.20;;;;;;5012966;28;20336;-75
2021/03/30 03:55:52;;;;;;;;;;;5.60;70.20;;;;;;5012589;28;19992;-76
2021/03/30 03:58:21;;;;;;;;;;;5.60;70.30;;;;;;4994912;28;19905;-76
2021/03/30 04:00:46;;;;;;;;;;;5.60;70.30;;;;;;5012613;28;20349;-75
2021/03/30 04:03:19;;;;;;;;;;;5.50;70.30;;;;;;5012661;28;19905;-75
2021/03/30 04:05:56;;;;;;;;;;;5.50;70.40;;;;;;5012599;28;21409;-75
2021/03/30 04:08:22;;;;;;;;;;;5.50;70.50;;;;;;5012083;28;19924;-76
2021/03/30 04:10:48;;;;;;;;;;;5.40;70.50;;;;;;5012894;28;19929;-75
2021/03/30 04:13:16;;;;;;;;;;;5.30;70.50;;;;;;5012352;28;19906;-76
2021/03/30 04:15:42;;;;;;;;;;;5.40;70.60;;;;;;4994868;28;19913;-76
2021/03/30 04:18:08;;;;;;;;;;;5.40;70.60;;;;;;5012339;28;19916;-75
2021/03/30 04:20:34;;;;;;;;;;;5.30;70.60;;;;;;4994753;28;20283;-76
2021/03/30 04:23:00;;;;;;;;;;;5.30;70.60;;;;;;5012139;28;19955;-75
2021/03/30 04:25:26;;;;;;;;;;;5.30;70.60;;;;;;5011601;28;19983;-76
2021/03/30 04:27:52;;;;;;;;;;;5.30;70.70;;;;;;5012284;28;20368;-76
2021/03/30 04:30:18;;;;;;;;;;;5.30;70.70;;;;;;5012360;28;19964;-76
2021/03/30 04:32:43;;;;;;;;;;;5.30;70.70;;;;;;5011908;28;19913;-75
2021/03/30 04:35:10;;;;;;;;;;;5.20;70.70;;;;;;5012065;28;19905;-75
2021/03/30 04:37:36;;;;;;;;;;;5.20;70.80;;;;;;5012215;28;20442;-75
2021/03/30 04:40:02;;;;;;;;;;;5.20;70.80;;;;;;5011983;28;19910;-75
2021/03/30 04:42:27;;;;;;;;;;;5.10;70.80;;;;;;5012272;28;19989;-76
2021/03/30 04:44:53;;;;;;;;;;;5.20;70.90;;;;;;4994386;28;19906;-75
2021/03/30 04:47:21;;;;;;;;;;;5.10;70.90;;;;;;5011903;28;19925;-75
2021/03/30 04:49:47;;;;;;;;;;;5.00;70.90;;;;;;5012055;28;19953;-75
2021/03/30 04:52:12;;;;;;;;;;;5.10;70.90;;;;;;4994723;28;19941;-75
2021/03/30 04:54:38;;;;;;;;;;;5.10;70.90;;;;;;5011879;28;19906;-75
2021/03/30 04:57:04;;;;;;;;;;;5.10;71.00;;;;;;5011753;28;19905;-76
2021/03/30 04:59:29;;;;;;;;;;;5.00;70.90;;;;;;5011974;28;19913;-75
2021/03/30 05:01:55;;;;;;;;;;;5.00;71.00;;;;;;5011948;28;19905;-76
2021/03/30 05:04:20;;;;;;;;;;;5.00;71.00;;;;;;5011698;28;19914;-75
2021/03/30 05:06:46;;;;;;;;;;;5.00;71.00;;;;;;5011769;28;19905;-76
2021/03/30 05:09:11;;;;;;;;;;;5.00;71.00;;;;;;5011628;28;20086;-76
2021/03/30 05:11:37;;;;;;;;;;;5.00;71.10;;;;;;5011659;28;20365;-76
2021/03/30 05:14:03;;;;;;;;;;;4.90;71.10;;;;;;5011486;28;19906;-76
2021/03/30 05:16:28;;;;;;;;;;;5.00;71.10;;;;;;4993803;28;19937;-76
2021/03/30 05:18:54;;;;;;;;;;;4.90;71.10;;;;;;5011522;28;19909;-76
2021/03/30 05:21:19;;;;;;;;;;;4.90;71.20;;;;;;4993789;28;19907;-76
2021/03/30 05:23:45;;;;;;;;;;;4.90;71.20;;;;;;5011716;28;19911;-76
2021/03/30 05:26:11;;;;;;;;;;;4.90;71.20;;;;;;5011637;28;19905;-76
2021/03/30 05:28:36;;;;;;;;;;;4.90;71.20;;;;;;5011188;28;19924;-76
2021/03/30 05:31:02;;;;;;;;;;;4.80;71.20;;;;;;4993926;28;20366;-76
2021/03/30 05:33:27;;;;;;;;;;;4.90;71.30;;;;;;5011618;28;20351;-76
2021/03/30 05:35:53;;;;;;;;;;;4.90;71.30;;;;;;4993541;28;19914;-76
2021/03/30 05:38:18;;;;;;;;;;;4.80;71.30;;;;;;5014064;28;19911;-76
2021/03/30 05:40:44;;;;;;;;;;;4.80;71.40;;;;;;4997107;28;19910;-75
2021/03/30 05:43:10;;;;;;;;;;;4.80;71.40;;;;;;5014611;28;19961;-76
2021/03/30 05:45:36;;;;;;;;;;;4.90;71.40;;;;;;5014669;28;19905;-76
2021/03/30 05:48:01;;;;;;;;;;;4.80;71.30;;;;;;5014717;28;20213;-76
2021/03/30 05:50:34;;;;;;;;;;;4.80;71.30;;;;;;5014815;28;19905;-76
2021/03/30 05:53:05;;;;;;;;;;;4.90;71.30;;;;;;5014749;28;19905;-76
2021/03/30 05:55:33;;;;;;;;;;;5.10;71.40;;;;;;5014761;28;20351;-75
2021/03/30 05:57:59;;;;;;;;;;;4.90;71.20;;;;;;5014466;28;19905;-75
2021/03/30 06:00:27;;;;;;;;;;;5.00;71.20;;;;;;4994711;28;20245;-76
2021/03/30 06:02:54;;;;;;;;;;;5.00;71.20;;;;;;4996820;28;19928;-76
2021/03/30 06:05:20;;;;;;;;;;;5.10;71.20;;;;;;5014459;28;19910;-76
2021/03/30 06:07:46;;;;;;;;;;;5.10;71.10;;;;;;5014765;28;20418;-77
2021/03/30 06:10:15;;;;;;;;;;;5.20;71.00;;;;;;5014473;28;19914;-78
2021/03/30 06:12:40;;;;;;;;;;;5.20;70.90;;;;;;5013748;28;20349;-78
2021/03/30 06:15:07;;;;;;;;;;;5.20;70.70;;;;;;4995977;28;19913;-78
2021/03/30 06:17:46;;;;;;;;;;;5.40;70.70;;;;;;5011819;28;19944;-78
2021/03/30 06:20:14;;;;;;;;;;;5.50;70.70;;;;;;4995188;28;19952;-78
2021/03/30 06:22:48;;;;;;;;;;;5.50;70.50;;;;;;5013447;28;19915;-78
2021/03/30 06:25:33;;;;;;;;;;;5.60;70.50;;;;;;5013397;28;20430;-78
2021/03/30 06:28:09;;;;;;;;;;;5.80;70.40;;;;;;5013177;28;19926;-77
2021/03/30 06:30:36;;;;;;;;;;;5.80;70.20;;;;;;4994194;28;19910;-79
2021/03/30 06:33:02;;;;;;;;;;;6.00;70.20;;;;;;4996687;28;19920;-73
2021/03/30 06:35:29;;;;;;;;;;;6.00;70.10;;;;;;5013590;28;19905;-73
2021/03/30 06:37:54;;;;;;;;;;;6.10;70.00;;;;;;5013839;28;19905;-74
2021/03/30 06:40:26;;;;;;;;;;;6.20;70.00;;;;;;5013644;28;20373;-73
2021/03/30 06:42:56;;;;;;;;;;;6.30;69.80;;;;;;4996094;28;19905;-75
2021/03/30 06:45:23;;;;;;;;;;;6.40;69.80;;;;;;5014155;28;19957;-75
2021/03/30 06:47:52;;;;;;;;;;;6.70;69.80;;;;;;5013483;28;19917;-76
2021/03/30 06:50:19;;;;;;;;;;;6.60;69.60;;;;;;4995164;28;19909;-77
2021/03/30 06:52:45;;;;;;;;;;;6.80;69.50;;;;;;4995922;28;20248;-76
2021/03/30 06:55:12;;;;;;;;;;;7.00;69.40;;;;;;4978281;28;19905;-76
2021/03/30 06:57:46;;;;;;;;;;;7.10;69.20;;;;;;4993976;28;19929;-76
2021/03/30 07:00:14;;;;;;;;;;;7.30;69.10;;;;;;5012101;28;19996;-79
2021/03/30 07:02:41;;;;;;;;;;;7.40;68.90;;;;;;4979481;28;20314;-77
2021/03/30 07:05:07;;;;;;;;;;;7.50;68.60;;;;;;4976078;28;19912;-78
2021/03/30 07:10:25;;;;;;;;;;;7.80;68.40;;;;;;4927241;29;19915;-78
2021/03/30 07:12:52;;;;;;;;;;;8.00;68.30;;;;;;4929809;29;20002;-77
2021/03/30 07:15:18;;;;;;;;;;;8.10;68.10;;;;;;4936905;29;19911;-77
2021/03/30 07:17:49;;;;;;;;;;;8.30;68.00;;;;;;4933992;29;19907;-75
2021/03/30 07:20:15;;;;;;;;;;;8.40;67.90;;;;;;4933361;29;19944;-74
2021/03/30 07:22:42;;;;;;;;;;;8.50;67.80;;;;;;4933217;29;19911;-76
2021/03/30 07:25:10;;;;;;;;;;;8.70;67.70;;;;;;4933018;29;20003;-76
2021/03/30 07:31:02;;;;;;;;;;;8.90;67.50;;;;;;4950983;29;19918;-75
2021/03/30 07:33:36;;;;;;;;;;;9.10;67.40;;;;;;4922818;28;19906;-74
2021/03/30 07:36:03;;;;;;;;;;;9.20;67.30;;;;;;4993372;28;20261;-74
2021/03/30 07:38:33;;;;;;;;;;;9.40;67.20;;;;;;5011965;28;19910;-75
2021/03/30 07:40:58;;;;;;;;;;;9.40;67.10;;;;;;4994633;28;20252;-75
2021/03/30 07:43:33;;;;;;;;;;;9.60;67.00;;;;;;5011985;28;19905;-76
2021/03/30 07:46:03;;;;;;;;;;;9.80;66.80;;;;;;5011980;28;19932;-74
2021/03/30 07:54:28;;;;;;;;;;;10.30;66.30;;;;;;4993281;28;20319;-75
2021/03/30 07:57:19;;;;;;;;;;;10.40;66.10;;;;;;4996988;28;19910;-81
2021/03/30 08:00:12;;;;;;;;;;;10.70;66.10;;;;;;4991964;28;19914;-77
2021/03/30 08:02:39;;;;;;;;;;;10.90;66.00;;;;;;4992034;28;20004;-77
2021/03/30 08:05:09;;;;;;;;;;;11.00;65.70;;;;;;4992343;28;20000;-76
2021/03/30 08:07:44;;;;;;;;;;;11.30;65.60;;;;;;4959029;28;20029;-78
2021/03/30 08:10:24;;;;;;;;;;;11.60;65.50;;;;;;4992328;28;20008;-74
2021/03/30 08:12:49;;;;;;;;;;;11.70;65.20;;;;;;4992540;28;19906;-76
2021/03/30 08:15:34;;;;;;;;;;;11.90;65.00;;;;;;4959124;28;20379;-75
2021/03/30 08:18:01;;;;;;;;;;;12.10;64.90;;;;;;4993105;28;19913;-76
2021/03/30 08:20:28;;;;;;;;;;;12.40;64.80;;;;;;4975022;28;20352;-77
2021/03/30 08:23:04;;;;;;;;;;;12.50;64.60;;;;;;4992461;28;19968;-77
2021/03/30 08:25:35;;;;;;;;;;;12.70;64.50;;;;;;4993127;28;19941;-77
2021/03/30 08:28:01;;;;;;;;;;;13.00;64.40;;;;;;4992614;28;19918;-76
2021/03/30 08:30:46;;;;;;;;;;;13.20;64.30;;;;;;4974416;28;19913;-75
2021/03/30 08:33:13;;;;;;;;;;;13.40;64.10;;;;;;4977638;28;19913;-75
2021/03/30 08:35:39;;;;;;;;;;;13.60;64.00;;;;;;4974633;28;19922;-76
2021/03/30 08:38:05;;;;;;;;;;;13.80;63.90;;;;;;4974837;28;19916;-75
2021/03/30 08:40:38;;;;;;;;;;;14.10;63.90;;;;;;4992293;28;19921;-76
2021/03/30 08:43:20;;;;;;;;;;;14.20;63.90;;;;;;4993079;28;19936;-77
2021/03/30 08:46:06;;;;;;;;;;;14.40;63.80;;;;;;4991955;28;19918;-74
2021/03/30 08:48:36;;;;;;;;;;;14.60;63.70;;;;;;4991912;28;19925;-75
2021/03/30 08:51:03;;;;;;;;;;;14.70;63.50;;;;;;4992308;28;19997;-76
2021/03/30 08:53:30;;;;;;;;;;;14.80;63.40;;;;;;4992139;28;19914;-74
2021/03/30 08:55:56;;;;;;;;;;;14.80;63.30;;;;;;4992884;28;20004;-75
2021/03/30 08:58:24;;;;;;;;;;;15.00;63.40;;;;;;4992192;28;19913;-75
2021/03/30 09:00:51;;;;;;;;;;;15.10;63.50;;;;;;4992642;28;19952;-75
2021/03/30 09:03:24;;;;;;;;;;;15.20;63.50;;;;;;4993223;28;20352;-75
2021/03/30 09:05:49;;;;;;;;;;;15.30;63.60;;;;;;4992607;28;19906;-75
2021/03/30 09:08:32;;;;;;;;;;;15.40;63.60;;;;;;4974351;28;20378;-74
2021/03/30 09:11:13;;;;;;;;;;;15.50;63.70;;;;;;4991684;28;20021;-75
2021/03/30 09:17:28;;;;;;;;;;;15.70;63.70;;;;;;4991588;28;20044;-77
2021/03/30 09:20:21;;;;;;;;;;;15.80;63.60;;;;;;5009927;28;19905;-76
2021/03/30 09:22:49;;;;;;;;;;;16.00;63.60;;;;;;4930661;29;20075;-76
2021/03/30 09:25:32;;;;;;;;;;;16.20;63.50;;;;;;4932033;29;19936;-74
2021/03/30 09:27:58;;;;;;;;;;;16.20;63.40;;;;;;4932613;29;19919;-74
2021/03/30 09:30:25;;;;;;;;;;;16.40;63.30;;;;;;4931908;29;19921;-74
2021/03/30 09:32:51;;;;;;;;;;;16.50;63.30;;;;;;4932005;29;19917;-74
2021/03/30 09:35:19;;;;;;;;;;;16.60;63.20;;;;;;4932047;29;19911;-76
2021/03/30 09:37:48;;;;;;;;;;;16.70;63.10;;;;;;4916354;29;19962;-76
2021/03/30 09:40:15;;;;;;;;;;;16.80;63.00;;;;;;4931860;29;19914;-76
2021/03/30 09:42:41;;;;;;;;;;;17.00;62.90;;;;;;4915558;29;19911;-76
2021/03/30 09:45:11;;;;;;;;;;;17.00;62.80;;;;;;4931619;29;19918;-76
2021/03/30 09:47:37;;;;;;;;;;;17.10;62.70;;;;;;4931369;29;19914;-76
2021/03/30 09:50:03;;;;;;;;;;;17.20;62.70;;;;;;4915286;29;20242;-75
2021/03/30 09:52:31;;;;;;;;;;;17.20;62.60;;;;;;4922792;28;19962;-76
2021/03/30 09:54:57;;;;;;;;;;;17.40;62.50;;;;;;4990959;28;20288;-76
2021/03/30 09:57:26;;;;;;;;;;;17.40;62.40;;;;;;4991416;28;19914;-74
2021/03/30 09:59:52;;;;;;;;;;;17.50;62.30;;;;;;4991227;28;19921;-74
2021/03/30 10:02:19;;;;;;;;;;;17.50;62.30;;;;;;4991284;28;19959;-75
2021/03/30 10:04:44;;;;;;;;;;;17.60;62.30;;;;;;4991412;28;19914;-75
2021/03/30 10:07:12;;;;;;;;;;;17.70;62.20;;;;;;4991409;28;19945;-75
2021/03/30 10:09:53;;;;;;;;;;;17.70;62.10;;;;;;4991301;28;19944;-76
2021/03/30 10:12:21;;;;;;;;;;;17.90;62.00;;;;;;4991782;28;20380;-75
2021/03/30 10:14:46;;;;;;;;;;;17.90;61.80;;;;;;4991606;28;19920;-75
2021/03/30 10:17:12;;;;;;;;;;;18.00;61.70;;;;;;4991076;28;19914;-74
2021/03/30 10:19:45;;;;;;;;;;;18.00;61.60;;;;;;4990968;28;20312;-75
2021/03/30 10:22:27;;;;;;;;;;;18.00;61.50;;;;;;4991132;28;20360;-76
2021/03/30 10:25:07;;;;;;;;;;;18.10;61.50;;;;;;4993600;28;19985;-76
2021/03/30 10:27:35;;;;;;;;;;;18.10;61.40;;;;;;4994715;28;19917;-77
2021/03/30 10:30:00;;;;;;;;;;;18.30;61.20;;;;;;4994501;28;19910;-74
2021/03/30 10:32:31;;;;;;;;;;;18.30;61.20;;;;;;4994368;28;20276;-75
2021/03/30 10:34:56;;;;;;;;;;;18.40;61.10;;;;;;4994656;28;19960;-74
2021/03/30 10:37:22;;;;;;;;;;;18.50;61.00;;;;;;4994780;28;19910;-75
2021/03/30 10:39:47;;;;;;;;;;;18.40;60.80;;;;;;4995074;28;19918;-77
2021/03/30 10:42:14;;;;;;;;;;;18.50;60.80;;;;;;4995387;28;19939;-76
2021/03/30 10:44:43;;;;;;;;;;;18.60;60.80;;;;;;4995178;28;20390;-76
2021/03/30 10:47:20;;;;;;;;;;;18.60;60.60;;;;;;4994329;28;19921;-76
2021/03/30 10:49:47;;;;;;;;;;;18.70;60.60;;;;;;4995042;28;19920;-76
2021/03/30 10:52:18;;;;;;;;;;;18.70;60.50;;;;;;4994932;28;19964;-76
2021/03/30 10:54:44;;;;;;;;;;;18.80;60.20;;;;;;4994614;28;19917;-75
2021/03/30 10:57:13;;;;;;;;;;;19.00;60.10;;;;;;4994795;28;19913;-76
2021/03/30 10:59:39;;;;;;;;;;;19.00;60.00;;;;;;4994674;28;19914;-76
2021/03/30 11:02:05;;;;;;;;;;;19.20;59.80;;;;;;4994507;28;19913;-76
2021/03/30 11:04:30;;;;;;;;;;;19.30;59.70;;;;;;4994166;28;19921;-76
2021/03/30 11:06:56;;;;;;;;;;;19.40;59.60;;;;;;4976700;28;19914;-76
2021/03/30 11:09:24;;;;;;;;;;;19.40;59.40;;;;;;4994449;28;20364;-76
2021/03/30 11:11:50;;;;;;;;;;;19.50;59.40;;;;;;4994260;28;20344;-76
2021/03/30 11:14:15;;;;;;;;;;;19.60;59.40;;;;;;4993917;28;20925;-76
2021/03/30 11:16:41;;;;;;;;;;;19.60;59.30;;;;;;4994052;28;20327;-75
2021/03/30 11:19:08;;;;;;;;;;;19.80;59.20;;;;;;4994132;28;19985;-75
2021/03/30 11:21:34;;;;;;;;;;;19.90;59.00;;;;;;4993746;28;19924;-76
2021/03/30 11:24:02;;;;;;;;;;;19.80;58.90;;;;;;4960423;28;19996;-76
2021/03/30 11:26:28;;;;;;;;;;;19.90;58.90;;;;;;4994158;28;20272;-74
2021/03/30 11:28:55;;;;;;;;;;;20.00;58.80;;;;;;4994630;28;19918;-75
2021/03/30 11:31:48;;;;;;;;;;;19.90;58.70;;;;;;4994147;28;19914;-73
2021/03/30 11:34:17;;;;;;;;;;;20.10;58.70;;;;;;5012425;28;19913;-73
2021/03/30 11:36:44;;;;;;;;;;;20.10;58.60;;;;;;4995921;28;20011;-73
2021/03/30 11:39:10;;;;;;;;;;;20.20;58.50;;;;;;5013684;28;19914;-74
2021/03/30 11:41:35;;;;;;;;;;;20.30;58.40;;;;;;5012688;28;19913;-74
2021/03/30 11:44:01;;;;;;;;;;;20.30;58.20;;;;;;5012881;28;19921;-74
2021/03/30 11:46:27;;;;;;;;;;;20.50;58.20;;;;;;5012874;28;19995;-74
2021/03/30 11:48:52;;;;;;;;;;;20.50;58.00;;;;;;5012683;28;19917;-75
2021/03/30 11:51:18;;;;;;;;;;;20.60;57.80;;;;;;5012763;28;20307;-75
2021/03/30 11:53:44;;;;;;;;;;;20.80;57.70;;;;;;4994454;28;19976;-74
2021/03/30 11:56:11;;;;;;;;;;;20.90;57.50;;;;;;5013119;28;19984;-74
2021/03/30 11:58:37;;;;;;;;;;;20.90;57.30;;;;;;5012995;28;20299;-74
2021/03/30 12:01:03;;;;;;;;;;;20.80;57.20;;;;;;5013112;28;19914;-73
2021/03/30 12:03:28;;;;;;;;;;;20.90;57.90;;;;;;5013077;28;20299;-73
2021/03/30 12:05:54;;;;;;;;;;;21.00;57.00;;;;;;5013232;28;20350;-74
2021/03/30 12:08:19;;;;;;;;;;;21.20;56.90;;;;;;5012516;28;19918;-74
2021/03/30 12:10:45;;;;;;;;;;;21.30;56.80;;;;;;4995483;28;19913;-76
2021/03/30 12:13:10;;;;;;;;;;;21.40;56.80;;;;;;5013022;28;19958;-76
2021/03/30 12:15:36;;;;;;;;;;;21.40;56.70;;;;;;5012946;28;20024;-76
2021/03/30 12:18:02;;;;;;;;;;;21.60;56.70;;;;;;5013416;28;19959;-76
2021/03/30 12:20:27;;;;;;;;;;;21.60;56.50;;;;;;5013773;28;19905;-76
2021/03/30 12:22:53;;;;;;;;;;;21.60;56.50;;;;;;4994702;28;20417;-76
2021/03/30 12:25:18;;;;;;;;;;;21.70;56.40;;;;;;5012451;28;19995;-75
2021/03/30 12:27:44;;;;;;;;;;;21.70;56.40;;;;;;5012443;28;19917;-75
2021/03/30 12:30:10;;;;;;;;;;;21.80;56.30;;;;;;5012632;28;19976;-76
2021/03/30 12:32:36;;;;;;;;;;;21.80;56.20;;;;;;5012203;28;19913;-76
2021/03/30 12:35:02;;;;;;;;;;;21.90;56.20;;;;;;5012947;28;20415;-74
2021/03/30 12:37:28;;;;;;;;;;;22.00;56.20;;;;;;4994425;28;19964;-75
2021/03/30 12:39:53;;;;;;;;;;;22.10;56.10;;;;;;5011877;28;19914;-75
2021/03/30 12:42:19;;;;;;;;;;;22.10;56.00;;;;;;5012005;28;19913;-75
2021/03/30 12:44:44;;;;;;;;;;;22.10;55.90;;;;;;5012901;28;20322;-77
2021/03/30 12:47:10;;;;;;;;;;;21.90;56.10;;;;;;5011114;28;19925;-74
2021/03/30 12:49:36;;;;;;;;;;;21.80;56.30;;;;;;5012662;28;19967;-76
2021/03/30 12:52:01;;;;;;;;;;;21.90;56.50;;;;;;5012798;28;19913;-76
2021/03/30 12:54:27;;;;;;;;;;;21.80;56.70;;;;;;5012650;28;19936;-74
2021/03/30 12:56:53;;;;;;;;;;;21.70;56.60;;;;;;5012062;28;19956;-78
2021/03/30 12:59:18;;;;;;;;;;;21.80;56.70;;;;;;5016294;28;19913;-75
2021/03/30 13:01:44;;;;;;;;;;;21.90;56.50;;;;;;4994763;28;19927;-78
2021/03/30 13:04:10;;;;;;;;;;;22.10;56.30;;;;;;4995602;28;19975;-78
2021/03/30 13:06:36;;;;;;;;;;;22.20;56.10;;;;;;5014332;28;19967;-78
2021/03/30 13:09:02;;;;;;;;;;;22.40;55.90;;;;;;4994948;28;20268;-76
2021/03/30 13:11:30;;;;;;;;;;;22.70;55.60;;;;;;5012581;28;19913;-77
2021/03/30 13:13:55;;;;;;;;;;;22.70;55.20;;;;;;4978600;28;20012;-76
2021/03/30 13:16:21;;;;;;;;;;;22.80;55.70;;;;;;5012365;28;20359;-76
2021/03/30 13:18:47;;;;;;;;;;;22.80;55.10;;;;;;5011846;28;19917;-75
2021/03/30 13:21:12;;;;;;;;;;;22.80;55.00;;;;;;4994616;28;20360;-75
2021/03/30 13:23:38;;;;;;;;;;;22.70;55.00;;;;;;5012136;28;19913;-74
2021/03/30 13:26:04;;;;;;;;;;;22.60;55.20;;;;;;5012147;28;19914;-74
2021/03/30 13:28:29;;;;;;;;;;;22.50;55.30;;;;;;5011744;28;20287;-75
2021/03/30 13:30:55;;;;;;;;;;;22.40;55.30;;;;;;4994104;28;19917;-75
2021/03/30 13:33:21;;;;;;;;;;;22.40;55.60;;;;;;5011898;28;19987;-77
2021/03/30 13:35:46;;;;;;;;;;;22.30;55.70;;;;;;5011707;28;19919;-78
2021/03/30 13:38:12;;;;;;;;;;;22.30;55.70;;;;;;5011085;28;19917;-76
2021/03/30 13:40:39;;;;;;;;;;;22.40;55.60;;;;;;5011759;28;20283;-75
2021/03/30 13:43:04;;;;;;;;;;;22.50;55.40;;;;;;4994050;28;19935;-71
2021/03/30 13:45:32;;;;;;;;;;;22.50;55.90;;;;;;4977965;28;20415;-73
2021/03/30 13:47:57;;;;;;;;;;;22.70;55.00;;;;;;4993880;28;19972;-73
2021/03/30 13:50:23;;;;;;;;;;;22.80;54.90;;;;;;4992426;28;19920;-72
2021/03/30 13:52:49;;;;;;;;;;;22.90;54.80;;;;;;5011313;28;19936;-73
2021/03/30 13:55:14;;;;;;;;;;;23.00;54.70;;;;;;4992871;28;19912;-73
2021/03/30 13:57:40;;;;;;;;;;;23.00;54.50;;;;;;5011638;28;19913;-74
2021/03/30 14:00:08;;;;;;;;;;;22.90;54.60;;;;;;5014673;28;20016;-74
2021/03/30 14:02:34;;;;;;;;;;;22.80;54.50;;;;;;4996484;28;19995;-74
2021/03/30 14:05:00;;;;;;;;;;;22.70;54.80;;;;;;5014777;28;20390;-74
2021/03/30 14:07:25;;;;;;;;;;;22.70;54.70;;;;;;5015156;28;20375;-75
2021/03/30 14:09:51;;;;;;;;;;;22.70;54.70;;;;;;5014999;28;19914;-74
2021/03/30 14:12:25;;;;;;;;;;;22.70;54.80;;;;;;5014866;28;19914;-74
2021/03/30 14:14:56;;;;;;;;;;;22.70;54.80;;;;;;5014353;28;19917;-74
2021/03/30 14:17:27;;;;;;;;;;;22.70;54.80;;;;;;5014506;28;19914;-76
2021/03/30 14:19:57;;;;;;;;;;;22.70;54.90;;;;;;5014485;28;20263;-74
2021/03/30 14:22:27;;;;;;;;;;;22.80;54.80;;;;;;5014650;28;19913;-74
2021/03/30 14:24:59;;;;;;;;;;;22.70;54.80;;;;;;5014609;28;19914;-74
2021/03/30 14:27:26;;;;;;;;;;;22.70;55.00;;;;;;5014236;28;19913;-75
2021/03/30 14:29:52;;;;;;;;;;;22.70;55.00;;;;;;5014358;28;19975;-75
2021/03/30 14:32:19;;;;;;;;;;;22.70;55.00;;;;;;5014330;28;20323;-75
2021/03/30 14:34:45;;;;;;;;;;;22.60;55.00;;;;;;5014392;28;19913;-74
2021/03/30 14:37:12;;;;;;;;;;;22.50;55.20;;;;;;4996609;28;19920;-74
2021/03/30 14:39:37;;;;;;;;;;;22.40;55.30;;;;;;5014115;28;19979;-74
2021/03/30 14:42:10;;;;;;;;;;;22.50;55.20;;;;;;5013921;28;19905;-74
2021/03/30 14:52:50;;;;;;;;;;;22.70;55.00;;;;;;5013918;28;20391;-73